Ubon Ratchathani, Thailand
Current Conditions -  °F | °C
As of 9:00 PM on Sunday 23 Nov 2014 (Local Time) from VTUU Reporting Station
Clear Clear  
Wind Chill: 77°   Ceiling: Unl
Heat Index: 79°   Visibility: 6mi
Dew Point: 70°   Wind: 3mph
Humidity: 78%   Direction: 10°N
Pressure: 29.85"   Gusts: NA
Location:  15.25°N, 104.83°E
Report Text: VTUU 231400Z 01003KT 9000 NSC 25/21 Q1011 A2988 NOSIG
Loading
Personal Weather Stations






























Interactive Weather Map New forecast layout! Learn more

10-Day Weather Forecast

Advertisements
Track Severe Weather on mobile